Huvudsida
METAR-TAF:

METAR-TAF

Flygplatser :

Lakselvs flygplats. Banak

Lakselv, Norge

latitud: 70-04N, longitud: 024-59E, höjd: 0 m

Aktuellt väderrapport

Denna rapport gjordes för 26 minuter sedan, klockan 11:50 UTC
Vind 3 kt varierande vindriktning
Temperatur -10°C
Fuktighet 85%
Tryck 1022 hPa
Sikt 10 km eller mer
Inga moln under 1 500 m eller inga cumulonimbus

METAR: ENNA 111150Z VRB03KT CAVOK M10/M12 Q1022 RMK WIND 1800FT 24009KT

Tid: 13:16 (12:16 UTC)

Väderprognos

Prognos gäller från 11 kl. 12 UTC till 12 kl. 12 UTC
Vind 8 kt från syd
Sikt 10 km eller mer
Få moln på en höjd av 1500 ft
Spridda moln på en höjd av 5000 ft

TAF: ENNA 1112/1212 18008KT 9999 FEW015 SCT050

Aktuella väderrapporter och prognoser från 4000 flygplatser (METAR- och TAF-rapporter).

De tillgängliga stationerna syns som gula och röda prickar på kartan.

För musen över prickarna för att se namnen på stationerna.

Klicka sedan för att få väderrapporter och prognoser.

För att ändra kartan: Klicka på de gröna knapparna med ett svart kors på för att zooma in; den gröna knappen med ett streck på för att zooma ut; eller på de gröna pilarna för angränsande kartor.


METAR-TAF: